Time;durP1;ratioP1;P1;durP2;ratioP2;P2;SDS_P1;SDS_P2;PMS_P1;PMS_P2;Temp;Humidity;BMP_temperature;BMP_pressure;BME280_temperature;BME280_humidity;BME280_pressure;Samples;Min_cycle;Max_cycle;Signal;HPM_P1;HPM_P2
2023/04/03 00:01:32;;;;;;;1.10;0.70;;;2.70;99.90;;;;;;4990540;28;20418;-76
2023/04/03 00:03:58;;;;;;;3.92;0.70;;;2.70;99.90;;;;;;4988535;28;20438;-79
2023/04/03 00:06:24;;;;;;;2.65;1.13;;;2.70;99.90;;;;;;4987980;28;20441;-77
2023/04/03 00:08:51;;;;;;;3.40;0.60;;;2.60;99.90;;;;;;5002737;28;20425;-77
2023/04/03 00:11:17;;;;;;;3.10;0.98;;;2.70;99.90;;;;;;5008686;28;20448;-79
2023/04/03 00:13:43;;;;;;;4.82;0.93;;;2.60;99.90;;;;;;5007539;28;20504;-80
2023/04/03 00:16:10;;;;;;;2.17;0.40;;;2.50;99.90;;;;;;4991772;28;20422;-77
2023/04/03 00:18:37;;;;;;;1.35;0.50;;;2.50;99.90;;;;;;4987464;28;20430;-77
2023/04/03 00:21:04;;;;;;;2.25;0.80;;;2.50;99.90;;;;;;4993603;28;20784;-77
2023/04/03 00:23:30;;;;;;;2.42;0.93;;;2.50;99.90;;;;;;4994652;28;20449;-76
2023/04/03 00:25:56;;;;;;;3.37;0.80;;;2.50;99.90;;;;;;4991906;28;20421;-77
2023/04/03 00:28:21;;;;;;;1.27;0.67;;;2.40;99.90;;;;;;4999629;28;20872;-78
2023/04/03 00:30:49;;;;;;;2.90;0.60;;;2.40;99.90;;;;;;4988128;28;20776;-78
2023/04/03 00:33:15;;;;;;;2.28;0.63;;;2.40;99.90;;;;;;4987850;28;20864;-80
2023/04/03 00:35:41;;;;;;;1.87;0.60;;;2.30;99.90;;;;;;4988789;28;20461;-78
2023/04/03 00:38:07;;;;;;;3.47;0.68;;;2.30;99.90;;;;;;4987999;28;20762;-78
2023/04/03 00:40:43;;;;;;;5.57;0.75;;;2.30;99.90;;;;;;4990081;28;20438;-77
2023/04/03 00:43:14;;;;;;;2.75;0.73;;;2.30;99.90;;;;;;4988340;28;20430;-78
2023/04/03 00:45:51;;;;;;;2.90;0.70;;;2.20;99.90;;;;;;4988187;28;20441;-76
2023/04/03 00:48:31;;;;;;;2.05;0.70;;;2.20;99.90;;;;;;4986768;28;20785;-78
2023/04/03 00:50:58;;;;;;;3.10;0.77;;;2.10;99.90;;;;;;4976785;28;20428;-78
2023/04/03 00:53:49;;;;;;;2.58;0.80;;;2.20;99.90;;;;;;4981975;28;20474;-77
2023/04/03 00:56:18;;;;;;;3.58;0.85;;;2.10;99.90;;;;;;4988036;28;20501;-80
2023/04/03 00:58:59;;;;;;;4.15;0.77;;;2.20;99.90;;;;;;4994803;28;20508;-79
2023/04/03 01:03:55;;;;;;;3.20;1.30;;;2.10;99.90;;;;;;4978510;28;20480;-76
2023/04/03 01:06:26;;;;;;;2.20;1.20;;;2.00;99.90;;;;;;4985532;28;20429;-77
2023/04/03 01:08:53;;;;;;;3.22;0.90;;;2.00;99.90;;;;;;4988234;28;20434;-77
2023/04/03 01:11:20;;;;;;;3.65;0.90;;;2.00;99.90;;;;;;4989884;28;20488;-76
2023/04/03 01:13:46;;;;;;;1.67;0.60;;;1.90;99.90;;;;;;4986599;28;20925;-76
2023/04/03 01:16:11;;;;;;;2.35;0.82;;;1.90;99.90;;;;;;4987291;28;20438;-77
2023/04/03 01:18:40;;;;;;;2.37;0.90;;;1.80;99.90;;;;;;4987731;28;20418;-77
2023/04/03 01:21:17;;;;;;;3.97;0.82;;;1.80;99.90;;;;;;4987455;28;20478;-80
2023/04/03 01:24:03;;;;;;;2.88;0.80;;;1.80;99.90;;;;;;4987660;28;20473;-76
2023/04/03 01:26:29;;;;;;;2.83;0.80;;;1.70;99.90;;;;;;4989440;28;20414;-76
2023/04/03 01:28:55;;;;;;;2.92;0.90;;;1.70;99.90;;;;;;4987777;28;20425;-78
2023/04/03 01:31:26;;;;;;;3.78;0.82;;;1.70;99.90;;;;;;4988526;28;20433;-77
2023/04/03 01:33:52;;;;;;;2.42;0.60;;;1.70;99.90;;;;;;4984369;28;20484;-77
2023/04/03 01:36:21;;;;;;;4.20;0.80;;;1.60;99.90;;;;;;4988152;28;20430;-76
2023/04/03 01:38:48;;;;;;;4.03;1.23;;;1.60;99.90;;;;;;4986881;28;20422;-77
2023/04/03 01:41:15;;;;;;;3.97;1.00;;;1.60;99.90;;;;;;4992218;28;20529;-76
2023/04/03 01:43:41;;;;;;;4.20;1.30;;;1.60;99.90;;;;;;4990067;28;20603;-76
2023/04/03 01:46:07;;;;;;;2.72;1.10;;;1.60;99.90;;;;;;4992419;28;20954;-76
2023/04/03 01:48:33;;;;;;;3.25;0.82;;;1.60;99.90;;;;;;4997329;28;20434;-78
2023/04/03 01:50:59;;;;;;;4.28;1.17;;;1.50;99.90;;;;;;5003865;28;20548;-78
2023/04/03 01:53:25;;;;;;;3.47;0.90;;;1.50;99.90;;;;;;4989182;28;20853;-76
2023/04/03 01:55:50;;;;;;;7.40;2.40;;;1.50;99.90;;;;;;4998178;28;20442;-78
2023/04/03 01:58:16;;;;;;;3.20;0.90;;;1.40;99.90;;;;;;5000867;28;20438;-77
2023/04/03 02:00:42;;;;;;;2.22;0.70;;;1.30;99.90;;;;;;4986422;28;20402;-77
2023/04/03 02:03:08;;;;;;;3.55;1.40;;;1.20;99.90;;;;;;4989554;28;20926;-76
2023/04/03 02:05:33;;;;;;;4.43;1.00;;;1.30;99.90;;;;;;4995576;28;20531;-76
2023/04/03 02:07:59;;;;;;;5.23;1.27;;;1.20;99.90;;;;;;5004499;28;20428;-77
2023/04/03 02:10:25;;;;;;;3.13;1.10;;;1.20;99.90;;;;;;4991596;28;20428;-79
2023/04/03 02:12:51;;;;;;;5.28;1.20;;;1.20;99.90;;;;;;5006012;28;20791;-78
2023/04/03 02:15:17;;;;;;;5.45;1.60;;;1.20;99.90;;;;;;4993400;28;20410;-77
2023/04/03 02:17:43;;;;;;;3.40;1.00;;;1.20;99.90;;;;;;4983800;28;20928;-76
2023/04/03 02:20:09;;;;;;;4.90;1.27;;;1.10;99.90;;;;;;4989377;28;20430;-77
2023/04/03 02:22:35;;;;;;;3.80;1.50;;;1.20;99.90;;;;;;4989354;28;20458;-78
2023/04/03 02:25:01;;;;;;;4.95;1.50;;;1.10;99.90;;;;;;4995571;28;20777;-79
2023/04/03 02:27:27;;;;;;;4.50;1.42;;;1.10;99.90;;;;;;5003550;28;20441;-77
2023/04/03 02:29:52;;;;;;;3.92;1.48;;;1.00;99.90;;;;;;5002078;28;20452;-76
2023/04/03 02:32:18;;;;;;;3.65;1.05;;;1.00;99.90;;;;;;4995110;28;21006;-77
2023/04/03 02:34:44;;;;;;;3.80;1.23;;;1.00;99.90;;;;;;4997129;28;20493;-80
2023/04/03 02:37:10;;;;;;;5.63;1.80;;;1.00;99.90;;;;;;5003274;28;20509;-78
2023/04/03 02:39:35;;;;;;;5.57;1.10;;;1.10;99.90;;;;;;5006354;28;20442;-78
2023/04/03 02:42:01;;;;;;;5.20;1.50;;;1.00;99.90;;;;;;5009516;28;20414;-76
2023/04/03 02:44:27;;;;;;;5.72;1.48;;;1.00;99.90;;;;;;4991299;28;20991;-77
2023/04/03 02:46:53;;;;;;;3.47;1.40;;;1.00;99.90;;;;;;4991027;28;20454;-77
2023/04/03 02:49:18;;;;;;;3.00;1.00;;;0.90;99.90;;;;;;5004224;28;20424;-78
2023/04/03 02:51:45;;;;;;;2.17;0.90;;;0.90;99.90;;;;;;4998286;28;20423;-76
2023/04/03 02:54:11;;;;;;;6.35;1.60;;;0.90;99.90;;;;;;4991343;28;20837;-77
2023/04/03 02:56:36;;;;;;;4.75;1.35;;;0.90;99.90;;;;;;5006169;28;20445;-78
2023/04/03 02:59:03;;;;;;;3.95;1.10;;;0.80;99.90;;;;;;4996693;28;20581;-77
2023/04/03 03:01:31;;;;;;;3.55;1.33;;;0.90;99.90;;;;;;5003174;28;20427;-77
2023/04/03 03:03:57;;;;;;;6.32;1.60;;;0.80;99.90;;;;;;4992609;28;20438;-76
2023/04/03 03:06:23;;;;;;;3.10;1.20;;;0.80;99.90;;;;;;5006975;28;20447;-78
2023/04/03 03:08:49;;;;;;;4.68;1.35;;;0.80;99.90;;;;;;4992756;28;20431;-77
2023/04/03 03:11:15;;;;;;;4.95;1.40;;;0.70;99.90;;;;;;4992781;28;20415;-77
2023/04/03 03:13:40;;;;;;;5.50;1.97;;;0.70;99.90;;;;;;5008656;28;20509;-75
2023/04/03 03:16:06;;;;;;;4.80;1.43;;;0.80;99.90;;;;;;4991498;28;20784;-77
2023/04/03 03:18:33;;;;;;;3.40;1.13;;;0.60;99.90;;;;;;4994046;28;20777;-77
2023/04/03 03:21:02;;;;;;;7.43;1.85;;;0.60;99.90;;;;;;4991048;28;20434;-76
2023/04/03 03:23:29;;;;;;;4.88;1.48;;;0.60;99.90;;;;;;4981250;28;20928;-76
2023/04/03 03:26:00;;;;;;;4.97;2.10;;;0.60;99.90;;;;;;4993399;28;20415;-77
2023/04/03 03:28:26;;;;;;;7.47;1.73;;;0.60;99.90;;;;;;4993459;28;20941;-78
2023/04/03 03:30:51;;;;;;;4.90;1.50;;;0.60;99.90;;;;;;4993975;28;20433;-77
2023/04/03 03:33:18;;;;;;;6.77;2.03;;;0.50;99.90;;;;;;4991842;28;20920;-77
2023/04/03 03:35:44;;;;;;;5.03;1.48;;;0.50;99.90;;;;;;4987348;28;20788;-76
2023/04/03 03:38:10;;;;;;;7.28;2.20;;;0.50;99.90;;;;;;4989506;28;20440;-76
2023/04/03 03:40:35;;;;;;;5.10;1.80;;;0.40;99.90;;;;;;4988428;28;20418;-80
2023/04/03 03:43:01;;;;;;;7.67;2.13;;;0.40;99.90;;;;;;4974370;28;20450;-78
2023/04/03 03:45:27;;;;;;;4.57;1.40;;;0.30;99.90;;;;;;4987900;28;20450;-78
2023/04/03 03:47:52;;;;;;;6.63;2.17;;;0.40;99.90;;;;;;4988201;28;20792;-76
2023/04/03 03:50:18;;;;;;;4.03;1.70;;;0.30;99.90;;;;;;4988010;28;20866;-79
2023/04/03 03:52:44;;;;;;;4.65;1.85;;;0.30;99.90;;;;;;4988189;28;20445;-79
2023/04/03 03:55:10;;;;;;;5.07;1.83;;;0.30;99.90;;;;;;4986142;28;20426;-78
2023/04/03 03:57:36;;;;;;;4.23;1.77;;;0.30;99.90;;;;;;4988824;28;20488;-78
2023/04/03 04:00:03;;;;;;;8.85;1.85;;;0.30;99.90;;;;;;4999985;28;20770;-75
2023/04/03 04:02:29;;;;;;;4.55;1.55;;;0.10;99.90;;;;;;4992552;28;20518;-76
2023/04/03 04:04:54;;;;;;;4.10;1.50;;;0.20;99.90;;;;;;4991208;28;20505;-77
2023/04/03 04:07:20;;;;;;;4.47;1.23;;;0.30;99.90;;;;;;4997543;28;20418;-77
2023/04/03 04:09:46;;;;;;;4.90;1.88;;;0.30;99.90;;;;;;4991589;28;20823;-76
2023/04/03 04:12:11;;;;;;;6.35;2.20;;;0.30;99.90;;;;;;5008095;28;20507;-75
2023/04/03 04:14:37;;;;;;;6.20;2.00;;;0.20;99.90;;;;;;4996310;28;20441;-77
2023/04/03 04:17:03;;;;;;;6.13;1.33;;;0.20;99.90;;;;;;4982275;28;20431;-76
2023/04/03 04:19:28;;;;;;;5.00;1.52;;;0.20;99.90;;;;;;4979566;28;20442;-76
2023/04/03 04:21:54;;;;;;;4.93;1.38;;;0.20;99.90;;;;;;4995797;28;20502;-77
2023/04/03 04:24:20;;;;;;;4.07;2.20;;;0.00;99.90;;;;;;4988065;28;20536;-77
2023/04/03 04:26:45;;;;;;;4.70;1.37;;;-0.10;99.90;;;;;;4990662;28;20423;-76
2023/04/03 04:29:11;;;;;;;4.83;1.70;;;-0.10;99.90;;;;;;4986562;28;20430;-75
2023/04/03 04:31:37;;;;;;;7.20;2.67;;;-0.10;99.90;;;;;;4994080;28;20428;-78
2023/04/03 04:34:02;;;;;;;5.63;1.90;;;0.00;99.90;;;;;;4995909;28;20470;-77
2023/04/03 04:36:28;;;;;;;6.90;1.27;;;0.00;99.90;;;;;;4987047;28;20785;-80
2023/04/03 04:38:54;;;;;;;6.47;2.10;;;0.00;99.90;;;;;;5000667;28;20501;-78
2023/04/03 04:41:22;;;;;;;3.78;1.70;;;0.00;99.90;;;;;;5003875;28;20788;-78
2023/04/03 04:43:49;;;;;;;4.65;2.03;;;0.00;99.90;;;;;;5001382;28;20469;-77
2023/04/03 04:46:15;;;;;;;5.32;2.10;;;0.00;99.90;;;;;;4990568;28;20429;-76
2023/04/03 04:48:41;;;;;;;5.95;2.28;;;-0.20;99.90;;;;;;4994162;28;20426;-78
2023/04/03 04:51:07;;;;;;;6.50;1.90;;;-0.10;99.90;;;;;;4987113;28;20955;-78
2023/04/03 04:53:33;;;;;;;8.68;2.80;;;-0.20;99.90;;;;;;4989395;28;20437;-76
2023/04/03 04:55:58;;;;;;;5.10;2.10;;;-0.10;99.90;;;;;;4989026;28;20431;-76
2023/04/03 04:58:25;;;;;;;5.30;2.30;;;-0.20;99.90;;;;;;4987161;28;20430;-75
2023/04/03 05:01:01;;;;;;;6.10;1.73;;;-0.30;99.90;;;;;;4997701;28;20452;-75
2023/04/03 05:03:27;;;;;;;5.15;2.30;;;-0.30;99.90;;;;;;4988545;28;21009;-74
2023/04/03 05:05:53;;;;;;;7.70;2.55;;;-0.30;99.90;;;;;;4986065;28;20425;-76
2023/04/03 05:08:19;;;;;;;5.90;1.87;;;-0.30;99.90;;;;;;4986054;28;20510;-76
2023/04/03 05:10:46;;;;;;;5.60;1.90;;;-0.30;99.90;;;;;;4984077;28;20892;-75
2023/04/03 05:13:12;;;;;;;8.70;3.05;;;-0.30;99.90;;;;;;4982643;28;20576;-75
2023/04/03 05:15:37;;;;;;;8.18;2.97;;;-0.30;99.90;;;;;;4977074;28;20480;-76
2023/04/03 05:18:04;;;;;;;8.60;2.30;;;-0.30;99.90;;;;;;4986868;28;20433;-77
2023/04/03 05:20:30;;;;;;;7.93;2.53;;;-0.40;99.90;;;;;;4984768;28;20422;-74
2023/04/03 05:22:56;;;;;;;7.85;2.28;;;-0.30;99.90;;;;;;4985364;28;20488;-74
2023/04/03 05:25:22;;;;;;;8.03;2.70;;;-0.10;99.90;;;;;;4985792;28;20426;-74
2023/04/03 05:27:47;;;;;;;8.33;2.27;;;-0.20;99.90;;;;;;4986771;28;20419;-75
2023/04/03 05:30:13;;;;;;;5.03;2.03;;;-0.10;99.90;;;;;;4983054;28;20433;-74
2023/04/03 05:32:39;;;;;;;8.15;3.03;;;0.70;99.90;;;;;;4994754;28;20441;-75
2023/04/03 05:35:07;;;;;;;6.87;2.37;;;0.60;99.90;;;;;;4990681;28;20471;-76
2023/04/03 05:37:33;;;;;;;7.65;2.58;;;0.40;99.90;;;;;;5003428;28;20978;-75
2023/04/03 05:39:59;;;;;;;6.88;1.90;;;1.20;99.90;;;;;;4999557;28;20430;-75
2023/04/03 05:42:25;;;;;;;9.75;2.60;;;0.60;99.90;;;;;;4979652;28;20781;-74
2023/04/03 05:44:51;;;;;;;8.93;3.15;;;0.50;99.90;;;;;;4985799;28;20441;-75
2023/04/03 05:47:17;;;;;;;6.53;2.28;;;0.70;99.90;;;;;;4985744;28;20453;-77
2023/04/03 05:49:45;;;;;;;5.65;2.60;;;0.70;99.90;;;;;;4986589;28;20430;-75
2023/04/03 05:52:32;;;;;;;7.15;2.60;;;0.60;99.90;;;;;;4993546;28;20439;-76
2023/04/03 05:54:58;;;;;;;6.45;2.22;;;0.50;99.90;;;;;;4980158;28;20441;-74
2023/04/03 05:57:24;;;;;;;4.50;1.87;;;0.70;99.90;;;;;;4990263;28;20414;-75
2023/04/03 05:59:50;;;;;;;8.23;3.03;;;0.50;99.90;;;;;;4986914;28;20430;-75
2023/04/03 06:02:18;;;;;;;10.68;2.28;;;0.60;99.90;;;;;;4983215;28;20430;-75
2023/04/03 06:04:44;;;;;;;7.15;2.72;;;0.70;99.90;;;;;;4995295;28;20439;-75
2023/04/03 06:07:15;;;;;;;6.18;2.42;;;0.70;99.90;;;;;;4983934;28;20504;-76
2023/04/03 06:09:41;;;;;;;8.63;2.13;;;0.80;99.90;;;;;;4986273;28;20419;-74
2023/04/03 06:12:08;;;;;;;8.50;2.80;;;1.00;99.90;;;;;;4997681;28;20440;-77
2023/04/03 06:14:33;;;;;;;7.88;2.85;;;0.70;99.90;;;;;;5007366;28;20907;-75
2023/04/03 06:17:00;;;;;;;7.15;2.58;;;1.10;99.90;;;;;;5001936;28;20474;-75
2023/04/03 06:19:26;;;;;;;7.32;2.53;;;1.10;99.90;;;;;;5000175;28;21015;-75
2023/04/03 06:21:52;;;;;;;6.75;2.15;;;1.00;99.90;;;;;;4983295;28;21098;-75
2023/04/03 06:24:18;;;;;;;5.85;2.17;;;1.10;99.90;;;;;;4980449;28;20528;-75
2023/04/03 06:26:44;;;;;;;9.20;2.42;;;1.20;99.90;;;;;;4984844;28;20424;-75
2023/04/03 06:29:10;;;;;;;6.73;2.50;;;1.20;99.90;;;;;;5007907;28;20459;-75
2023/04/03 06:31:39;;;;;;;8.45;2.40;;;1.40;99.90;;;;;;4993746;28;20461;-76
2023/04/03 06:34:07;;;;;;;7.65;2.47;;;1.60;99.90;;;;;;5008255;28;20432;-75
2023/04/03 06:36:33;;;;;;;6.40;2.30;;;1.30;99.90;;;;;;4994744;28;20457;-75
2023/04/03 06:38:58;;;;;;;8.82;2.63;;;1.20;99.90;;;;;;4997727;28;20434;-75
2023/04/03 06:41:25;;;;;;;10.77;4.03;;;1.50;99.90;;;;;;4989005;28;20426;-75
2023/04/03 06:43:51;;;;;;;7.93;2.70;;;1.70;99.90;;;;;;4989256;28;20450;-75
2023/04/03 06:46:19;;;;;;;8.23;3.50;;;1.70;99.90;;;;;;4991287;28;20419;-75
2023/04/03 06:48:45;;;;;;;5.65;2.53;;;1.90;99.90;;;;;;4993224;28;20433;-77
2023/04/03 06:51:26;;;;;;;9.13;3.58;;;2.40;99.90;;;;;;5010579;28;20411;-75
2023/04/03 06:53:54;;;;;;;6.85;2.28;;;2.40;99.90;;;;;;4993446;28;20422;-75
2023/04/03 06:56:20;;;;;;;9.77;2.92;;;2.10;99.90;;;;;;4987712;28;20618;-76
2023/04/03 06:58:46;;;;;;;8.93;2.88;;;1.90;99.90;;;;;;5010895;28;20478;-75
2023/04/03 07:01:14;;;;;;;8.70;3.33;;;2.10;99.90;;;;;;4996997;28;20521;-76
2023/04/03 07:03:40;;;;;;;5.65;2.28;;;2.60;99.90;;;;;;4988943;28;20434;-74
2023/04/03 07:06:07;;;;;;;8.27;3.25;;;2.10;99.90;;;;;;4987784;28;20450;-76
2023/04/03 07:08:34;;;;;;;8.32;3.28;;;2.20;99.90;;;;;;4970545;28;20488;-76
2023/04/03 07:11:00;;;;;;;9.30;3.00;;;2.20;99.90;;;;;;4990367;28;20491;-75
2023/04/03 07:13:26;;;;;;;6.63;2.35;;;2.20;99.90;;;;;;4988983;28;20438;-75
2023/04/03 07:15:52;;;;;;;8.00;2.88;;;2.40;99.90;;;;;;4989095;28;20421;-76
2023/04/03 07:18:18;;;;;;;7.32;2.90;;;2.50;99.90;;;;;;4990520;28;20441;-76
2023/04/03 07:20:44;;;;;;;6.37;2.20;;;2.50;99.90;;;;;;4989849;28;20737;-75
2023/04/03 07:23:10;;;;;;;7.13;2.83;;;2.70;99.90;;;;;;4988450;28;20443;-76
2023/04/03 07:25:36;;;;;;;6.65;3.42;;;2.80;99.90;;;;;;4973240;28;20418;-78
2023/04/03 07:28:01;;;;;;;7.80;2.47;;;2.90;99.90;;;;;;4984801;28;20427;-76
2023/04/03 07:30:27;;;;;;;8.37;3.47;;;3.00;99.90;;;;;;4973617;28;21389;-75
2023/04/03 07:32:53;;;;;;;8.57;2.77;;;3.00;99.90;;;;;;4989038;28;20437;-75
2023/04/03 07:35:18;;;;;;;7.43;2.53;;;3.20;99.90;;;;;;4990758;28;20413;-75
2023/04/03 07:37:44;;;;;;;5.50;1.90;;;3.30;99.90;;;;;;5002078;28;20491;-74
2023/04/03 07:40:10;;;;;;;5.80;1.88;;;3.30;99.90;;;;;;4993405;28;20434;-76
2023/04/03 07:42:36;;;;;;;7.80;2.13;;;3.30;99.90;;;;;;4996371;28;20445;-75
2023/04/03 07:45:04;;;;;;;6.37;2.90;;;3.30;99.90;;;;;;4995807;28;20422;-76
2023/04/03 07:47:31;;;;;;;6.82;1.80;;;3.40;99.90;;;;;;4993975;28;20927;-75
2023/04/03 07:49:57;;;;;;;3.93;2.10;;;3.60;99.90;;;;;;4988256;28;20509;-75
2023/04/03 07:52:23;;;;;;;5.53;1.75;;;3.70;99.90;;;;;;4981585;28;20427;-76
2023/04/03 07:54:49;;;;;;;7.63;1.90;;;3.90;99.90;;;;;;4986115;28;20809;-73
2023/04/03 07:57:15;;;;;;;5.78;2.22;;;4.00;99.90;;;;;;4986216;28;20461;-74
2023/04/03 07:59:42;;;;;;;5.13;2.60;;;4.00;99.90;;;;;;4987456;28;20441;-75
2023/04/03 08:02:11;;;;;;;4.80;1.60;;;4.10;99.90;;;;;;4988532;28;20434;-75
2023/04/03 08:04:37;;;;;;;4.82;2.45;;;4.10;99.90;;;;;;4988508;28;20441;-73
2023/04/03 08:07:03;;;;;;;3.90;1.80;;;4.10;99.90;;;;;;4984430;28;20424;-74
2023/04/03 08:09:29;;;;;;;4.95;1.60;;;4.10;99.90;;;;;;4987366;28;20437;-74
2023/04/03 08:11:55;;;;;;;5.70;1.92;;;4.40;99.90;;;;;;4990497;28;20841;-75
2023/04/03 08:14:20;;;;;;;2.70;1.23;;;4.30;99.90;;;;;;4982461;28;20432;-73
2023/04/03 08:16:48;;;;;;;5.40;2.07;;;4.20;99.90;;;;;;4996986;28;20507;-74
2023/04/03 08:19:16;;;;;;;5.13;2.42;;;4.40;99.90;;;;;;4991183;28;20879;-73
2023/04/03 08:21:42;;;;;;;6.18;1.67;;;4.40;99.90;;;;;;4988085;28;20437;-74
2023/04/03 08:24:09;;;;;;;2.95;1.23;;;4.50;99.90;;;;;;4985225;28;20442;-73
2023/04/03 08:26:34;;;;;;;6.18;1.58;;;4.70;99.90;;;;;;4985849;28;20430;-75
2023/04/03 08:29:00;;;;;;;4.35;1.20;;;4.80;99.90;;;;;;4984305;28;20418;-73
2023/04/03 08:31:26;;;;;;;5.10;1.67;;;5.00;99.90;;;;;;4989814;28;20418;-75
2023/04/03 08:33:52;;;;;;;3.83;1.60;;;5.00;99.90;;;;;;4981229;28;20434;-73
2023/04/03 08:36:25;;;;;;;3.70;1.30;;;5.10;99.90;;;;;;4980335;28;22307;-74
2023/04/03 08:38:51;;;;;;;5.38;1.40;;;5.10;99.90;;;;;;4988269;28;20437;-74
2023/04/03 08:41:39;;;;;;;3.70;1.17;;;5.40;99.90;;;;;;4988475;28;20746;-73
2023/04/03 08:44:17;;;;;;;4.57;1.75;;;5.40;99.90;;;;;;4986141;28;20894;-73
2023/04/03 08:46:55;;;;;;;6.45;1.98;;;5.40;99.90;;;;;;4986643;28;20438;-74
2023/04/03 08:49:34;;;;;;;4.68;1.25;;;5.50;99.90;;;;;;4987482;28;20452;-73
2023/04/03 08:52:05;;;;;;;3.78;1.00;;;5.40;99.90;;;;;;4985944;28;20497;-73
2023/04/03 08:54:35;;;;;;;3.35;0.88;;;5.20;99.90;;;;;;4991462;28;20783;-73
2023/04/03 08:57:04;;;;;;;2.70;0.90;;;5.60;99.90;;;;;;4990694;28;20418;-73
2023/04/03 08:59:34;;;;;;;2.53;1.10;;;5.50;99.90;;;;;;4985393;28;20438;-73
2023/04/03 09:02:06;;;;;;;4.15;1.20;;;5.70;99.90;;;;;;4988429;28;20426;-73
2023/04/03 09:04:33;;;;;;;2.38;0.95;;;5.80;99.90;;;;;;4985871;28;20470;-75
2023/04/03 09:07:08;;;;;;;2.15;0.90;;;5.90;99.90;;;;;;4986188;28;20438;-73
2023/04/03 09:09:36;;;;;;;3.83;0.98;;;6.00;99.90;;;;;;4985150;28;20430;-73
2023/04/03 09:12:20;;;;;;;3.83;0.90;;;6.00;99.90;;;;;;4988488;28;20529;-75
2023/04/03 09:15:07;;;;;;;3.67;1.10;;;6.10;99.90;;;;;;4984069;28;20836;-73
2023/04/03 09:18:16;;;;;;;2.75;0.70;;;6.20;99.90;;;;;;4988080;28;20814;-74
2023/04/03 09:21:02;;;;;;;3.75;0.98;;;6.10;99.90;;;;;;4975589;28;20434;-74
2023/04/03 09:23:34;;;;;;;2.00;0.80;;;6.10;99.90;;;;;;4974240;28;20443;-74
2023/04/03 09:26:09;;;;;;;2.72;0.80;;;6.40;99.90;;;;;;4987619;28;20794;-73
2023/04/03 09:28:38;;;;;;;6.57;1.75;;;6.20;99.90;;;;;;4981171;28;20434;-74
2023/04/03 09:31:23;;;;;;;3.78;0.88;;;6.40;99.90;;;;;;4975367;28;20428;-74
2023/04/03 09:34:02;;;;;;;2.63;0.88;;;6.40;99.90;;;;;;4983172;28;20955;-74
2023/04/03 09:36:38;;;;;;;2.88;0.82;;;6.40;99.90;;;;;;4986505;28;20438;-74
2023/04/03 09:39:15;;;;;;;2.55;0.98;;;6.50;99.90;;;;;;4984545;28;20426;-74
2023/04/03 09:41:43;;;;;;;5.53;1.15;;;6.60;99.90;;;;;;4987394;28;20418;-74
2023/04/03 09:44:26;;;;;;;2.85;1.00;;;6.70;99.90;;;;;;4971819;28;20446;-73
2023/04/03 09:46:52;;;;;;;3.92;1.20;;;6.70;99.90;;;;;;4984539;28;20430;-74
2023/04/03 09:49:18;;;;;;;2.42;0.80;;;6.80;99.90;;;;;;4985514;28;20410;-75
2023/04/03 09:51:45;;;;;;;4.78;1.30;;;6.90;99.90;;;;;;4983981;28;20730;-75
2023/04/03 09:54:37;;;;;;;3.47;0.90;;;7.00;99.90;;;;;;4988178;28;20524;-74
2023/04/03 09:57:11;;;;;;;2.20;1.02;;;6.80;99.90;;;;;;4969212;28;20416;-74
2023/04/03 09:59:46;;;;;;;1.90;0.80;;;6.80;99.90;;;;;;4977516;28;20433;-74
2023/04/03 10:02:42;;;;;;;2.20;0.65;;;6.80;99.90;;;;;;4981797;28;20793;-75
2023/04/03 10:05:35;;;;;;;2.15;0.75;;;7.10;99.90;;;;;;4990777;28;20545;-73
2023/04/03 10:08:14;;;;;;;2.33;0.60;;;7.10;99.90;;;;;;4985817;28;20483;-74
2023/04/03 10:10:46;;;;;;;2.45;0.90;;;7.10;99.90;;;;;;4981160;28;20442;-72
2023/04/03 10:13:23;;;;;;;6.22;1.10;;;7.00;99.90;;;;;;4986170;28;20429;-75
2023/04/03 10:15:55;;;;;;;4.60;0.85;;;6.80;99.90;;;;;;4987289;28;20501;-73
2023/04/03 10:18:44;;;;;;;2.72;0.55;;;7.10;99.90;;;;;;4985803;28;20418;-73
2023/04/03 10:21:32;;;;;;;2.28;0.75;;;7.10;98.90;;;;;;4972421;28;20433;-76
2023/04/03 10:24:17;;;;;;;3.50;1.00;;;7.20;98.00;;;;;;4986958;28;20442;-75
2023/04/03 10:27:24;;;;;;;1.42;0.50;;;7.20;99.90;;;;;;4988765;28;20433;-74
2023/04/03 10:30:03;;;;;;;1.67;0.80;;;7.40;98.90;;;;;;4966405;28;20984;-75
2023/04/03 10:32:44;;;;;;;3.50;1.25;;;7.60;98.40;;;;;;4987467;28;20441;-75
2023/04/03 10:35:20;;;;;;;1.83;0.57;;;7.50;99.60;;;;;;4988579;28;20421;-75
2023/04/03 10:38:24;;;;;;;1.70;0.90;;;7.60;99.70;;;;;;4990109;28;20453;-74
2023/04/03 10:41:11;;;;;;;3.40;0.60;;;7.70;97.80;;;;;;4988052;28;20426;-75
2023/04/03 10:43:47;;;;;;;2.53;0.70;;;7.40;95.70;;;;;;4986451;28;20533;-75
2023/04/03 10:46:13;;;;;;;2.20;1.00;;;7.70;98.50;;;;;;4987832;28;20469;-76
2023/04/03 10:48:57;;;;;;;2.58;0.70;;;8.00;98.50;;;;;;4988268;28;20469;-74
2023/04/03 10:51:34;;;;;;;2.13;0.60;;;7.70;95.20;;;;;;4989604;28;20569;-76
2023/04/03 10:54:19;;;;;;;2.80;0.88;;;7.90;96.80;;;;;;4987520;28;20434;-77
2023/04/03 10:56:50;;;;;;;1.58;0.50;;;8.20;97.70;;;;;;4985398;28;20433;-75
2023/04/03 10:59:35;;;;;;;2.03;0.70;;;8.10;96.20;;;;;;4992251;28;20487;-75
2023/04/03 11:02:18;;;;;;;3.88;1.00;;;8.30;96.00;;;;;;4988904;28;20434;-76
2023/04/03 11:04:49;;;;;;;3.10;0.60;;;8.10;96.70;;;;;;4988916;28;20437;-76
2023/04/03 11:07:18;;;;;;;2.20;0.50;;;8.20;95.40;;;;;;4987447;28;20439;-76
2023/04/03 11:09:47;;;;;;;2.00;0.85;;;8.10;96.50;;;;;;4982068;28;20418;-76
2023/04/03 11:12:58;;;;;;;2.00;0.65;;;8.30;96.40;;;;;;4988666;28;20437;-75
2023/04/03 11:15:28;;;;;;;4.05;0.60;;;8.30;96.90;;;;;;4984826;28;20867;-76
2023/04/03 11:18:02;;;;;;;2.70;0.63;;;8.30;95.00;;;;;;4991179;28;20513;-76
2023/04/03 11:20:33;;;;;;;2.33;0.82;;;8.40;96.40;;;;;;4989523;28;20521;-75
2023/04/03 11:23:29;;;;;;;2.50;0.60;;;8.40;96.70;;;;;;4974307;28;20449;-75
2023/04/03 11:26:10;;;;;;;2.72;0.70;;;8.40;94.50;;;;;;4990103;28;20427;-76
2023/04/03 11:28:36;;;;;;;4.87;0.90;;;8.40;95.20;;;;;;4989540;28;20447;-78
2023/04/03 11:31:12;;;;;;;3.33;0.75;;;8.50;96.20;;;;;;4991748;28;20437;-75
2023/04/03 11:34:13;;;;;;;2.35;0.60;;;8.40;95.70;;;;;;4993152;28;20434;-76
2023/04/03 11:36:55;;;;;;;2.65;0.40;;;8.60;96.60;;;;;;4991954;28;20508;-77
2023/04/03 11:39:23;;;;;;;2.03;0.50;;;8.40;94.00;;;;;;4992558;28;20451;-77
2023/04/03 11:41:49;;;;;;;2.20;0.60;;;8.30;95.30;;;;;;4980013;28;20773;-77
2023/04/03 11:44:36;;;;;;;1.20;0.90;;;8.20;94.70;;;;;;4986238;28;20443;-77
2023/04/03 11:47:03;;;;;;;1.70;0.50;;;8.30;95.10;;;;;;4987955;28;20484;-77
2023/04/03 11:50:01;;;;;;;1.00;0.50;;;8.40;94.30;;;;;;4986911;28;20430;-77
2023/04/03 11:52:57;;;;;;;2.22;0.90;;;8.60;95.90;;;;;;4984758;28;20789;-78
2023/04/03 11:55:32;;;;;;;2.40;0.47;;;8.30;94.50;;;;;;4989760;28;20503;-76
2023/04/03 11:57:57;;;;;;;2.20;0.80;;;8.20;95.20;;;;;;4987409;28;20470;-76
2023/04/03 12:00:51;;;;;;;2.80;0.63;;;8.50;96.40;;;;;;4987432;28;20454;-77
2023/04/03 12:06:06;;;;;;;2.45;0.63;;;8.20;94.80;;;;;;4977288;28;20780;-77
2023/04/03 12:08:41;;;;;;;2.80;0.80;;;8.10;93.90;;;;;;4985337;28;20430;-77
2023/04/03 12:11:13;;;;;;;3.35;1.05;;;8.30;94.80;;;;;;4989022;28;20422;-78
2023/04/03 12:13:56;;;;;;;2.97;0.93;;;8.20;93.80;;;;;;4986867;28;20757;-77
2023/04/03 12:16:37;;;;;;;2.05;0.70;;;8.20;94.30;;;;;;5001993;28;20430;-77
2023/04/03 12:19:16;;;;;;;1.35;0.73;;;8.20;94.20;;;;;;4978972;28;20426;-77
2023/04/03 12:21:51;;;;;;;5.97;1.50;;;8.40;95.40;;;;;;4982451;28;20501;-78
2023/04/03 12:24:17;;;;;;;2.08;0.57;;;8.50;95.10;;;;;;4988469;28;20567;-76
2023/04/03 12:27:01;;;;;;;2.90;0.77;;;8.10;94.10;;;;;;4986272;28;20482;-76
2023/04/03 12:29:39;;;;;;;2.47;1.00;;;8.40;96.50;;;;;;4985665;28;20561;-76
2023/04/03 12:32:44;;;;;;;4.20;1.10;;;8.40;95.50;;;;;;4985059;28;20774;-76
2023/04/03 12:35:19;;;;;;;2.28;0.88;;;8.40;94.30;;;;;;4962360;28;20501;-77
2023/04/03 12:38:03;;;;;;;2.67;1.00;;;8.40;94.90;;;;;;4985360;28;20730;-76
2023/04/03 12:40:52;;;;;;;3.60;0.75;;;8.30;95.20;;;;;;4987541;28;20541;-76
2023/04/03 12:43:36;;;;;;;3.40;0.80;;;8.30;94.00;;;;;;4984070;28;20434;-76
2023/04/03 12:46:08;;;;;;;4.13;0.75;;;8.30;95.00;;;;;;4984617;28;20502;-77
2023/04/03 12:48:53;;;;;;;2.75;0.80;;;8.60;95.50;;;;;;4982495;28;20430;-77
2023/04/03 12:51:38;;;;;;;2.50;0.90;;;8.80;95.20;;;;;;4985975;28;20434;-77
2023/04/03 12:54:31;;;;;;;1.95;0.60;;;8.60;94.40;;;;;;5001171;28;20421;-77
2023/04/03 12:57:17;;;;;;;1.98;0.77;;;8.60;93.70;;;;;;4984966;28;20430;-77
2023/04/03 12:59:45;;;;;;;3.80;1.77;;;8.70;94.30;;;;;;4992118;28;20425;-77
2023/04/03 13:02:30;;;;;;;1.80;0.70;;;8.80;97.10;;;;;;4985320;28;20470;-77
2023/04/03 13:04:59;;;;;;;3.93;0.70;;;8.90;95.70;;;;;;4986398;28;20429;-77
2023/04/03 13:07:34;;;;;;;2.95;1.13;;;9.00;95.50;;;;;;4986890;28;20434;-77
2023/04/03 13:10:09;;;;;;;2.50;1.33;;;8.90;94.60;;;;;;4986907;28;20434;-77
2023/04/03 13:12:56;;;;;;;3.35;0.95;;;9.10;94.50;;;;;;4985387;28;20794;-77
2023/04/03 13:15:40;;;;;;;2.27;0.80;;;9.30;96.70;;;;;;4989151;28;20411;-77
2023/04/03 13:18:31;;;;;;;1.95;1.00;;;9.50;96.40;;;;;;4987273;28;20431;-78
2023/04/03 13:21:06;;;;;;;2.60;0.90;;;9.40;95.20;;;;;;4972406;28;21017;-77